Airfield :
LOGIN :

Register | Disclaimer

   EN    FR    IT 

 










Legend :    VFR   Marginal VFR   IFR   Intensive IFR   Very Intensive IFR
Visi :
Ceiling :
>= 8 km
>= 3000ft
5 to 8 km
1000 to 3000 ft
1500m to 5 km
500 to 1000 ft
800 to 1500m
200 to 500 ft
< 800m
< 200 ft
Symbols :   Thunderstorms  Fog  Heavy snow  Heavy precipitations  Wind > 20 kt
SIGMETs :     Misc.  Thunderstorms  Icing  Turbulence  Mountain Waves  Volcanic Ashes






- Airport Elevation : 359 ft
- IATA code : BVA


LFOB - Beauvais

CURRENT METAR :
  • 051930Z AUTO 01010KT CAVOK 05/02 Q1042 NOSIG

EXPIRED METARs :
  • 051900Z AUTO 36008KT CAVOK 04/01 Q1042 NOSIG
  • 051830Z AUTO 35008KT CAVOK 04/01 Q1042 NOSIG
  • 051800Z AUTO 35008KT 9999 FEW030 04/01 Q1042 NOSIG
  • 051730Z AUTO 36010KT CAVOK 06/01 Q1042 NOSIG
  • 051700Z AUTO 36007KT CAVOK 06/01 Q1042 NOSIG

TAF TAF LFOB
Valid from the 05 at 18:00 until the 06 at 18:00 UTC


051700Z 0518/0618 01015KT 9999 SCT020
BECMG 0600/0603 02005KT
PROB30 0605/0610 3000 BR OVC002
ATIS : +33 3 44 11 49 28



MET'MAP, your aeronautical weather chart ! - Copyright ORBIFLY December 2007 - Disclaimer

ORBIFLY MET'MAP TEAM :

Programming & Development : Alexandra Zaïnal
Original concept : Baudouin d'Aumeries
Technical & hardware support : Manuel Goepfert
Assistance : Marc-Olivier Méhu




SOURCES & CREDITS :

   NOAA